sensor_id;sensor_type;location;lat;lon;timestamp;temperature;humidity
49379;DHT22;35254;47.990;-1.608;2023-02-28T00:00:36;19.50;39.10
49379;DHT22;35254;47.990;-1.608;2023-02-28T00:03:03;19.40;39.20
49379;DHT22;35254;47.990;-1.608;2023-02-28T00:05:29;19.40;39.10
49379;DHT22;35254;47.990;-1.608;2023-02-28T00:07:55;19.40;39.20
49379;DHT22;35254;47.990;-1.608;2023-02-28T00:10:23;19.40;39.10
49379;DHT22;35254;47.990;-1.608;2023-02-28T00:12:50;19.40;39.00
49379;DHT22;35254;47.990;-1.608;2023-02-28T00:15:17;19.40;39.20
49379;DHT22;35254;47.990;-1.608;2023-02-28T00:17:43;19.30;39.10
49379;DHT22;35254;47.990;-1.608;2023-02-28T00:20:10;19.30;39.10
49379;DHT22;35254;47.990;-1.608;2023-02-28T00:22:46;19.30;39.10
49379;DHT22;35254;47.990;-1.608;2023-02-28T00:25:14;19.30;39.30
49379;DHT22;35254;47.990;-1.608;2023-02-28T00:27:41;19.30;39.20
49379;DHT22;35254;47.990;-1.608;2023-02-28T00:30:10;19.30;39.30
49379;DHT22;35254;47.990;-1.608;2023-02-28T00:32:36;19.30;39.20
49379;DHT22;35254;47.990;-1.608;2023-02-28T00:35:02;19.30;39.10
49379;DHT22;35254;47.990;-1.608;2023-02-28T00:37:28;19.30;39.10
49379;DHT22;35254;47.990;-1.608;2023-02-28T00:39:53;19.20;39.20
49379;DHT22;35254;47.990;-1.608;2023-02-28T00:42:19;19.20;39.00
49379;DHT22;35254;47.990;-1.608;2023-02-28T00:44:45;19.20;39.20
49379;DHT22;35254;47.990;-1.608;2023-02-28T00:47:10;19.20;39.10
49379;DHT22;35254;47.990;-1.608;2023-02-28T00:49:36;19.20;39.20
49379;DHT22;35254;47.990;-1.608;2023-02-28T00:52:01;19.20;39.10
49379;DHT22;35254;47.990;-1.608;2023-02-28T00:54:27;19.20;39.20
49379;DHT22;35254;47.990;-1.608;2023-02-28T00:56:53;19.20;39.00
49379;DHT22;35254;47.990;-1.608;2023-02-28T00:59:19;19.20;39.10
49379;DHT22;35254;47.990;-1.608;2023-02-28T01:01:45;19.20;39.00
49379;DHT22;35254;47.990;-1.608;2023-02-28T01:04:12;19.10;39.10
49379;DHT22;35254;47.990;-1.608;2023-02-28T01:06:38;19.20;39.10
49379;DHT22;35254;47.990;-1.608;2023-02-28T01:09:05;19.20;39.00
49379;DHT22;35254;47.990;-1.608;2023-02-28T01:11:31;19.20;39.00
49379;DHT22;35254;47.990;-1.608;2023-02-28T01:13:58;19.10;38.80
49379;DHT22;35254;47.990;-1.608;2023-02-28T01:16:24;19.10;39.20
49379;DHT22;35254;47.990;-1.608;2023-02-28T01:18:49;19.10;39.00
49379;DHT22;35254;47.990;-1.608;2023-02-28T01:21:17;19.10;39.00
49379;DHT22;35254;47.990;-1.608;2023-02-28T01:23:44;19.10;38.90
49379;DHT22;35254;47.990;-1.608;2023-02-28T01:26:11;19.10;38.90
49379;DHT22;35254;47.990;-1.608;2023-02-28T01:28:37;19.10;38.90
49379;DHT22;35254;47.990;-1.608;2023-02-28T01:31:03;19.00;39.00
49379;DHT22;35254;47.990;-1.608;2023-02-28T01:33:28;19.00;39.10
49379;DHT22;35254;47.990;-1.608;2023-02-28T01:36:02;19.00;39.00
49379;DHT22;35254;47.990;-1.608;2023-02-28T01:38:29;19.00;39.00
49379;DHT22;35254;47.990;-1.608;2023-02-28T01:40:54;19.00;39.00
49379;DHT22;35254;47.990;-1.608;2023-02-28T01:45:52;19.00;39.00
49379;DHT22;35254;47.990;-1.608;2023-02-28T01:48:18;19.00;38.90
49379;DHT22;35254;47.990;-1.608;2023-02-28T01:50:45;19.00;39.00
49379;DHT22;35254;47.990;-1.608;2023-02-28T01:53:16;19.00;39.00
49379;DHT22;35254;47.990;-1.608;2023-02-28T01:55:46;19.00;39.00
49379;DHT22;35254;47.990;-1.608;2023-02-28T01:58:13;19.00;39.00
49379;DHT22;35254;47.990;-1.608;2023-02-28T02:00:39;18.90;38.80
49379;DHT22;35254;47.990;-1.608;2023-02-28T02:03:12;19.00;38.90
49379;DHT22;35254;47.990;-1.608;2023-02-28T02:05:39;18.90;38.80
49379;DHT22;35254;47.990;-1.608;2023-02-28T02:08:08;18.90;38.90
49379;DHT22;35254;47.990;-1.608;2023-02-28T02:10:50;18.90;38.70
49379;DHT22;35254;47.990;-1.608;2023-02-28T02:13:53;18.90;38.80
49379;DHT22;35254;47.990;-1.608;2023-02-28T02:38:13;18.80;38.60
49379;DHT22;35254;47.990;-1.608;2023-02-28T02:40:59;18.80;38.60
49379;DHT22;35254;47.990;-1.608;2023-02-28T02:43:36;18.80;38.60
49379;DHT22;35254;47.990;-1.608;2023-02-28T02:46:10;18.80;38.60
49379;DHT22;35254;47.990;-1.608;2023-02-28T02:48:40;18.70;38.60
49379;DHT22;35254;47.990;-1.608;2023-02-28T02:51:13;18.70;38.70
49379;DHT22;35254;47.990;-1.608;2023-02-28T02:53:55;18.70;38.60
49379;DHT22;35254;47.990;-1.608;2023-02-28T02:56:26;18.70;38.50
49379;DHT22;35254;47.990;-1.608;2023-02-28T02:58:53;18.70;38.50
49379;DHT22;35254;47.990;-1.608;2023-02-28T03:01:23;18.70;38.40
49379;DHT22;35254;47.990;-1.608;2023-02-28T03:04:16;18.70;38.50
49379;DHT22;35254;47.990;-1.608;2023-02-28T03:06:42;18.70;38.50
49379;DHT22;35254;47.990;-1.608;2023-02-28T03:09:07;18.70;38.60
49379;DHT22;35254;47.990;-1.608;2023-02-28T03:11:35;18.70;38.60
49379;DHT22;35254;47.990;-1.608;2023-02-28T03:14:18;18.70;38.50
49379;DHT22;35254;47.990;-1.608;2023-02-28T03:27:29;18.60;38.70
49379;DHT22;35254;47.990;-1.608;2023-02-28T03:30:00;18.60;38.60
49379;DHT22;35254;47.990;-1.608;2023-02-28T03:32:38;18.60;38.60
49379;DHT22;35254;47.990;-1.608;2023-02-28T03:35:32;18.60;38.70
49379;DHT22;35254;47.990;-1.608;2023-02-28T03:38:05;18.60;38.60
49379;DHT22;35254;47.990;-1.608;2023-02-28T03:40:33;18.60;38.50
49379;DHT22;35254;47.990;-1.608;2023-02-28T03:43:04;18.50;38.40
49379;DHT22;35254;47.990;-1.608;2023-02-28T03:45:35;18.50;38.60
49379;DHT22;35254;47.990;-1.608;2023-02-28T03:48:15;18.50;38.40
49379;DHT22;35254;47.990;-1.608;2023-02-28T03:50:43;18.50;38.30
49379;DHT22;35254;47.990;-1.608;2023-02-28T03:53:11;18.50;38.30
49379;DHT22;35254;47.990;-1.608;2023-02-28T03:55:42;18.50;38.30
49379;DHT22;35254;47.990;-1.608;2023-02-28T03:59:14;18.50;38.20
49379;DHT22;35254;47.990;-1.608;2023-02-28T04:01:19;18.50;38.10
49379;DHT22;35254;47.990;-1.608;2023-02-28T04:03:46;18.50;38.00
49379;DHT22;35254;47.990;-1.608;2023-02-28T04:06:20;18.50;38.10
49379;DHT22;35254;47.990;-1.608;2023-02-28T04:08:46;18.40;38.30
49379;DHT22;35254;47.990;-1.608;2023-02-28T04:11:39;18.50;38.10
49379;DHT22;35254;47.990;-1.608;2023-02-28T04:14:07;18.40;38.10
49379;DHT22;35254;47.990;-1.608;2023-02-28T04:16:35;18.50;38.10
49379;DHT22;35254;47.990;-1.608;2023-02-28T04:19:02;18.40;38.20
49379;DHT22;35254;47.990;-1.608;2023-02-28T04:21:33;18.50;38.10
49379;DHT22;35254;47.990;-1.608;2023-02-28T04:23:59;18.40;38.10
49379;DHT22;35254;47.990;-1.608;2023-02-28T04:26:32;18.40;38.10
49379;DHT22;35254;47.990;-1.608;2023-02-28T04:28:59;18.40;38.00
49379;DHT22;35254;47.990;-1.608;2023-02-28T04:31:25;18.40;38.10
49379;DHT22;35254;47.990;-1.608;2023-02-28T04:33:50;18.40;38.20
49379;DHT22;35254;47.990;-1.608;2023-02-28T04:36:16;18.40;38.20
49379;DHT22;35254;47.990;-1.608;2023-02-28T04:38:45;18.40;38.10
49379;DHT22;35254;47.990;-1.608;2023-02-28T04:41:12;18.40;38.10
49379;DHT22;35254;47.990;-1.608;2023-02-28T04:43:38;18.40;38.10
49379;DHT22;35254;47.990;-1.608;2023-02-28T04:46:04;18.40;38.10
49379;DHT22;35254;47.990;-1.608;2023-02-28T04:48:33;18.40;38.00
49379;DHT22;35254;47.990;-1.608;2023-02-28T04:51:04;18.40;38.10
49379;DHT22;35254;47.990;-1.608;2023-02-28T04:53:30;18.40;38.10
49379;DHT22;35254;47.990;-1.608;2023-02-28T04:55:56;18.30;38.00
49379;DHT22;35254;47.990;-1.608;2023-02-28T04:58:23;18.30;38.00
49379;DHT22;35254;47.990;-1.608;2023-02-28T05:00:52;18.30;38.00
49379;DHT22;35254;47.990;-1.608;2023-02-28T05:03:18;18.30;38.10
49379;DHT22;35254;47.990;-1.608;2023-02-28T05:05:44;18.30;38.20
49379;DHT22;35254;47.990;-1.608;2023-02-28T05:08:10;18.30;38.20
49379;DHT22;35254;47.990;-1.608;2023-02-28T05:10:36;18.30;38.10
49379;DHT22;35254;47.990;-1.608;2023-02-28T05:13:02;18.30;37.90
49379;DHT22;35254;47.990;-1.608;2023-02-28T05:15:27;18.30;37.90
49379;DHT22;35254;47.990;-1.608;2023-02-28T05:17:53;18.30;38.00
49379;DHT22;35254;47.990;-1.608;2023-02-28T05:20:19;18.30;38.00
49379;DHT22;35254;47.990;-1.608;2023-02-28T05:22:44;18.20;38.00
49379;DHT22;35254;47.990;-1.608;2023-02-28T05:25:18;18.30;38.10
49379;DHT22;35254;47.990;-1.608;2023-02-28T05:27:45;18.30;38.20
49379;DHT22;35254;47.990;-1.608;2023-02-28T05:30:11;18.30;38.30
49379;DHT22;35254;47.990;-1.608;2023-02-28T05:32:40;18.20;38.30
49379;DHT22;35254;47.990;-1.608;2023-02-28T05:35:10;18.20;38.30
49379;DHT22;35254;47.990;-1.608;2023-02-28T05:37:37;18.20;38.10
49379;DHT22;35254;47.990;-1.608;2023-02-28T05:40:04;18.20;38.10
49379;DHT22;35254;47.990;-1.608;2023-02-28T05:42:31;18.20;38.20
49379;DHT22;35254;47.990;-1.608;2023-02-28T05:44:57;18.20;38.20
49379;DHT22;35254;47.990;-1.608;2023-02-28T05:47:23;18.20;38.30
49379;DHT22;35254;47.990;-1.608;2023-02-28T05:49:48;18.20;38.40
49379;DHT22;35254;47.990;-1.608;2023-02-28T05:52:14;18.20;38.10
49379;DHT22;35254;47.990;-1.608;2023-02-28T05:54:40;18.20;38.10
49379;DHT22;35254;47.990;-1.608;2023-02-28T05:57:06;18.20;38.10
49379;DHT22;35254;47.990;-1.608;2023-02-28T05:59:32;18.20;38.20
49379;DHT22;35254;47.990;-1.608;2023-02-28T06:01:57;18.20;38.00
49379;DHT22;35254;47.990;-1.608;2023-02-28T06:04:23;18.20;38.00
49379;DHT22;35254;47.990;-1.608;2023-02-28T06:06:49;18.20;38.10
49379;DHT22;35254;47.990;-1.608;2023-02-28T06:09:16;18.20;38.20
49379;DHT22;35254;47.990;-1.608;2023-02-28T06:11:42;18.20;38.20
49379;DHT22;35254;47.990;-1.608;2023-02-28T06:14:14;18.20;38.10
49379;DHT22;35254;47.990;-1.608;2023-02-28T06:16:40;18.20;38.00
49379;DHT22;35254;47.990;-1.608;2023-02-28T06:19:05;18.20;38.10
49379;DHT22;35254;47.990;-1.608;2023-02-28T06:21:31;18.20;38.30
49379;DHT22;35254;47.990;-1.608;2023-02-28T06:23:57;18.20;38.30
49379;DHT22;35254;47.990;-1.608;2023-02-28T06:26:24;18.20;38.50
49379;DHT22;35254;47.990;-1.608;2023-02-28T06:28:49;18.20;38.50
49379;DHT22;35254;47.990;-1.608;2023-02-28T06:31:17;18.20;38.60
49379;DHT22;35254;47.990;-1.608;2023-02-28T06:33:44;18.20;38.70
49379;DHT22;35254;47.990;-1.608;2023-02-28T06:36:11;18.20;38.70
49379;DHT22;35254;47.990;-1.608;2023-02-28T06:38:38;18.20;38.70
49379;DHT22;35254;47.990;-1.608;2023-02-28T06:41:04;18.20;38.70
49379;DHT22;35254;47.990;-1.608;2023-02-28T06:43:34;18.20;38.80
49379;DHT22;35254;47.990;-1.608;2023-02-28T06:46:01;18.20;38.70
49379;DHT22;35254;47.990;-1.608;2023-02-28T06:48:27;18.20;38.60
49379;DHT22;35254;47.990;-1.608;2023-02-28T06:51:05;18.20;38.60
49379;DHT22;35254;47.990;-1.608;2023-02-28T06:53:31;18.20;38.50
49379;DHT22;35254;47.990;-1.608;2023-02-28T06:55:57;18.20;38.70
49379;DHT22;35254;47.990;-1.608;2023-02-28T06:58:23;18.20;38.90
49379;DHT22;35254;47.990;-1.608;2023-02-28T07:00:51;18.20;39.00
49379;DHT22;35254;47.990;-1.608;2023-02-28T07:03:17;18.20;39.00
49379;DHT22;35254;47.990;-1.608;2023-02-28T07:05:44;18.20;39.00
49379;DHT22;35254;47.990;-1.608;2023-02-28T07:08:09;18.30;39.10
49379;DHT22;35254;47.990;-1.608;2023-02-28T07:10:37;18.30;39.20
49379;DHT22;35254;47.990;-1.608;2023-02-28T07:13:04;18.20;39.50
49379;DHT22;35254;47.990;-1.608;2023-02-28T07:15:30;18.30;39.60
49379;DHT22;35254;47.990;-1.608;2023-02-28T07:17:55;18.20;39.20
49379;DHT22;35254;47.990;-1.608;2023-02-28T07:20:22;18.20;39.00
49379;DHT22;35254;47.990;-1.608;2023-02-28T07:22:49;18.20;38.90
49379;DHT22;35254;47.990;-1.608;2023-02-28T07:25:24;18.20;38.60
49379;DHT22;35254;47.990;-1.608;2023-02-28T07:27:51;18.20;37.70
49379;DHT22;35254;47.990;-1.608;2023-02-28T07:30:17;18.20;36.90
49379;DHT22;35254;47.990;-1.608;2023-02-28T07:32:43;18.10;34.20
49379;DHT22;35254;47.990;-1.608;2023-02-28T07:35:08;18.00;35.70
49379;DHT22;35254;47.990;-1.608;2023-02-28T07:37:34;18.10;36.20
49379;DHT22;35254;47.990;-1.608;2023-02-28T07:40:07;18.10;35.30
49379;DHT22;35254;47.990;-1.608;2023-02-28T07:42:37;18.20;35.50
49379;DHT22;35254;47.990;-1.608;2023-02-28T07:45:06;18.20;35.10
49379;DHT22;35254;47.990;-1.608;2023-02-28T07:47:32;18.30;34.80
49379;DHT22;35254;47.990;-1.608;2023-02-28T07:49:59;18.30;35.20
49379;DHT22;35254;47.990;-1.608;2023-02-28T07:52:24;18.40;35.00
49379;DHT22;35254;47.990;-1.608;2023-02-28T07:54:51;18.50;35.30
49379;DHT22;35254;47.990;-1.608;2023-02-28T07:57:16;18.50;35.40
49379;DHT22;35254;47.990;-1.608;2023-02-28T07:59:42;18.60;35.60
49379;DHT22;35254;47.990;-1.608;2023-02-28T08:02:14;18.60;35.80
49379;DHT22;35254;47.990;-1.608;2023-02-28T08:04:40;18.70;35.70
49379;DHT22;35254;47.990;-1.608;2023-02-28T08:07:05;18.70;36.00
49379;DHT22;35254;47.990;-1.608;2023-02-28T08:09:31;18.70;36.00
49379;DHT22;35254;47.990;-1.608;2023-02-28T08:11:57;18.70;36.20
49379;DHT22;35254;47.990;-1.608;2023-02-28T08:14:23;18.80;36.30
49379;DHT22;35254;47.990;-1.608;2023-02-28T08:16:48;18.80;36.40
49379;DHT22;35254;47.990;-1.608;2023-02-28T08:19:14;18.80;36.40
49379;DHT22;35254;47.990;-1.608;2023-02-28T08:21:40;18.80;36.50
49379;DHT22;35254;47.990;-1.608;2023-02-28T08:24:06;18.90;36.50
49379;DHT22;35254;47.990;-1.608;2023-02-28T08:26:31;18.90;36.60
49379;DHT22;35254;47.990;-1.608;2023-02-28T08:28:57;18.90;36.70
49379;DHT22;35254;47.990;-1.608;2023-02-28T08:31:23;18.90;36.70
49379;DHT22;35254;47.990;-1.608;2023-02-28T08:33:49;18.90;36.80
49379;DHT22;35254;47.990;-1.608;2023-02-28T08:36:17;18.90;36.90
49379;DHT22;35254;47.990;-1.608;2023-02-28T08:38:43;19.00;36.90
49379;DHT22;35254;47.990;-1.608;2023-02-28T08:41:11;19.00;37.00
49379;DHT22;35254;47.990;-1.608;2023-02-28T08:43:38;19.00;37.10
49379;DHT22;35254;47.990;-1.608;2023-02-28T08:46:04;19.10;37.10
49379;DHT22;35254;47.990;-1.608;2023-02-28T08:48:31;19.10;37.10
49379;DHT22;35254;47.990;-1.608;2023-02-28T08:51:02;19.10;37.20
49379;DHT22;35254;47.990;-1.608;2023-02-28T08:53:29;19.20;37.30
49379;DHT22;35254;47.990;-1.608;2023-02-28T08:56:02;19.20;37.30
49379;DHT22;35254;47.990;-1.608;2023-02-28T08:58:28;19.20;37.40
49379;DHT22;35254;47.990;-1.608;2023-02-28T09:00:54;19.20;37.50
49379;DHT22;35254;47.990;-1.608;2023-02-28T09:03:20;19.20;37.60
49379;DHT22;35254;47.990;-1.608;2023-02-28T09:08:19;19.20;37.70
49379;DHT22;35254;47.990;-1.608;2023-02-28T09:10:45;19.10;37.80
49379;DHT22;35254;47.990;-1.608;2023-02-28T09:13:10;19.10;37.80
49379;DHT22;35254;47.990;-1.608;2023-02-28T09:15:39;19.10;38.00
49379;DHT22;35254;47.990;-1.608;2023-02-28T09:18:05;19.20;38.20
49379;DHT22;35254;47.990;-1.608;2023-02-28T09:20:30;19.20;38.30
49379;DHT22;35254;47.990;-1.608;2023-02-28T09:22:56;19.20;38.30
49379;DHT22;35254;47.990;-1.608;2023-02-28T09:25:22;19.20;38.30
49379;DHT22;35254;47.990;-1.608;2023-02-28T09:27:48;19.30;38.10
49379;DHT22;35254;47.990;-1.608;2023-02-28T09:30:14;19.20;38.10
49379;DHT22;35254;47.990;-1.608;2023-02-28T09:32:40;19.30;38.00
49379;DHT22;35254;47.990;-1.608;2023-02-28T09:35:06;19.30;38.10
49379;DHT22;35254;47.990;-1.608;2023-02-28T09:37:32;19.30;38.00
49379;DHT22;35254;47.990;-1.608;2023-02-28T09:39:57;19.30;38.10
49379;DHT22;35254;47.990;-1.608;2023-02-28T09:42:31;19.30;38.00
49379;DHT22;35254;47.990;-1.608;2023-02-28T09:45:05;19.30;37.90
49379;DHT22;35254;47.990;-1.608;2023-02-28T09:47:43;19.30;38.00
49379;DHT22;35254;47.990;-1.608;2023-02-28T09:50:27;19.30;38.10
49379;DHT22;35254;47.990;-1.608;2023-02-28T09:52:54;19.30;37.90
49379;DHT22;35254;47.990;-1.608;2023-02-28T09:55:41;19.30;37.90
49379;DHT22;35254;47.990;-1.608;2023-02-28T09:58:21;19.30;37.90
49379;DHT22;35254;47.990;-1.608;2023-02-28T10:00:57;19.40;37.80
49379;DHT22;35254;47.990;-1.608;2023-02-28T10:03:38;19.40;37.90
49379;DHT22;35254;47.990;-1.608;2023-02-28T10:06:17;19.40;37.90
49379;DHT22;35254;47.990;-1.608;2023-02-28T10:09:04;19.40;38.00
49379;DHT22;35254;47.990;-1.608;2023-02-28T10:11:33;19.40;38.00
49379;DHT22;35254;47.990;-1.608;2023-02-28T10:14:04;19.40;38.00
49379;DHT22;35254;47.990;-1.608;2023-02-28T10:16:56;19.40;38.00
49379;DHT22;35254;47.990;-1.608;2023-02-28T10:21:57;19.40;38.10
49379;DHT22;35254;47.990;-1.608;2023-02-28T10:24:42;19.40;38.10
49379;DHT22;35254;47.990;-1.608;2023-02-28T10:29:42;19.50;38.10
49379;DHT22;35254;47.990;-1.608;2023-02-28T10:32:11;19.50;38.00
49379;DHT22;35254;47.990;-1.608;2023-02-28T10:34:37;19.40;38.20
49379;DHT22;35254;47.990;-1.608;2023-02-28T10:37:03;19.50;38.10
49379;DHT22;35254;47.990;-1.608;2023-02-28T10:39:45;19.50;38.20
49379;DHT22;35254;47.990;-1.608;2023-02-28T10:42:25;19.50;38.10
49379;DHT22;35254;47.990;-1.608;2023-02-28T10:48:02;19.70;38.10
49379;DHT22;35254;47.990;-1.608;2023-02-28T10:56:14;19.70;38.00
49379;DHT22;35254;47.990;-1.608;2023-02-28T11:03:57;19.80;38.20
49379;DHT22;35254;47.990;-1.608;2023-02-28T11:06:32;19.80;38.10
49379;DHT22;35254;47.990;-1.608;2023-02-28T11:09:03;19.80;38.10
49379;DHT22;35254;47.990;-1.608;2023-02-28T11:11:40;19.80;38.10
49379;DHT22;35254;47.990;-1.608;2023-02-28T11:14:20;19.80;38.10
49379;DHT22;35254;47.990;-1.608;2023-02-28T11:16:47;19.90;38.00
49379;DHT22;35254;47.990;-1.608;2023-02-28T11:19:38;20.00;38.00
49379;DHT22;35254;47.990;-1.608;2023-02-28T11:22:04;20.00;37.90
49379;DHT22;35254;47.990;-1.608;2023-02-28T11:24:35;20.10;37.90
49379;DHT22;35254;47.990;-1.608;2023-02-28T11:27:00;20.00;37.90
49379;DHT22;35254;47.990;-1.608;2023-02-28T11:29:31;20.10;37.80
49379;DHT22;35254;47.990;-1.608;2023-02-28T11:34:44;20.20;37.80
49379;DHT22;35254;47.990;-1.608;2023-02-28T11:37:16;20.20;37.70
49379;DHT22;35254;47.990;-1.608;2023-02-28T11:39:44;20.20;37.80
49379;DHT22;35254;47.990;-1.608;2023-02-28T11:48:07;20.20;38.10
49379;DHT22;35254;47.990;-1.608;2023-02-28T11:53:53;20.10;38.70
49379;DHT22;35254;47.990;-1.608;2023-02-28T11:56:38;20.20;40.10
49379;DHT22;35254;47.990;-1.608;2023-02-28T11:59:40;20.20;40.30
49379;DHT22;35254;47.990;-1.608;2023-02-28T12:02:23;20.20;40.10
49379;DHT22;35254;47.990;-1.608;2023-02-28T12:05:17;20.20;39.80
49379;DHT22;35254;47.990;-1.608;2023-02-28T12:13:46;20.30;39.90
49379;DHT22;35254;47.990;-1.608;2023-02-28T12:16:45;20.40;39.80
49379;DHT22;35254;47.990;-1.608;2023-02-28T12:19:31;20.40;39.70
49379;DHT22;35254;47.990;-1.608;2023-02-28T12:27:34;20.50;39.80
49379;DHT22;35254;47.990;-1.608;2023-02-28T12:30:03;20.60;39.90
49379;DHT22;35254;47.990;-1.608;2023-02-28T12:32:36;20.50;40.00
49379;DHT22;35254;47.990;-1.608;2023-02-28T12:35:14;20.40;39.90
49379;DHT22;35254;47.990;-1.608;2023-02-28T12:37:47;20.40;39.50
49379;DHT22;35254;47.990;-1.608;2023-02-28T12:40:27;20.40;38.90
49379;DHT22;35254;47.990;-1.608;2023-02-28T12:43:02;20.40;38.70
49379;DHT22;35254;47.990;-1.608;2023-02-28T12:48:20;20.40;38.30
49379;DHT22;35254;47.990;-1.608;2023-02-28T12:50:48;20.40;38.00
49379;DHT22;35254;47.990;-1.608;2023-02-28T12:53:42;20.30;38.00
49379;DHT22;35254;47.990;-1.608;2023-02-28T12:56:36;20.40;37.90
49379;DHT22;35254;47.990;-1.608;2023-02-28T13:10:48;20.30;37.70
49379;DHT22;35254;47.990;-1.608;2023-02-28T13:13:22;20.30;37.60
49379;DHT22;35254;47.990;-1.608;2023-02-28T13:16:09;20.30;37.50
49379;DHT22;35254;47.990;-1.608;2023-02-28T13:18:39;20.40;37.40
49379;DHT22;35254;47.990;-1.608;2023-02-28T13:21:26;20.30;37.40
49379;DHT22;35254;47.990;-1.608;2023-02-28T13:29:43;20.40;37.60
49379;DHT22;35254;47.990;-1.608;2023-02-28T13:47:51;20.40;37.50
49379;DHT22;35254;47.990;-1.608;2023-02-28T13:50:22;20.30;37.50
49379;DHT22;35254;47.990;-1.608;2023-02-28T13:56:21;20.40;37.40
49379;DHT22;35254;47.990;-1.608;2023-02-28T13:59:15;20.40;37.40
49379;DHT22;35254;47.990;-1.608;2023-02-28T14:07:21;20.40;37.70
49379;DHT22;35254;47.990;-1.608;2023-02-28T14:10:05;20.40;37.80
49379;DHT22;35254;47.990;-1.608;2023-02-28T14:17:58;20.40;37.70
49379;DHT22;35254;47.990;-1.608;2023-02-28T14:20:27;20.40;37.80
49379;DHT22;35254;47.990;-1.608;2023-02-28T14:31:15;20.50;37.90
49379;DHT22;35254;47.990;-1.608;2023-02-28T14:36:43;20.50;38.00
49379;DHT22;35254;47.990;-1.608;2023-02-28T14:41:40;20.40;38.00
49379;DHT22;35254;47.990;-1.608;2023-02-28T14:44:26;20.40;38.10
49379;DHT22;35254;47.990;-1.608;2023-02-28T14:46:59;20.40;38.10
49379;DHT22;35254;47.990;-1.608;2023-02-28T14:49:35;20.40;38.20
49379;DHT22;35254;47.990;-1.608;2023-02-28T14:52:21;20.40;38.10
49379;DHT22;35254;47.990;-1.608;2023-02-28T14:54:55;20.40;38.10
49379;DHT22;35254;47.990;-1.608;2023-02-28T14:57:28;20.40;38.20
49379;DHT22;35254;47.990;-1.608;2023-02-28T15:02:40;20.40;38.40
49379;DHT22;35254;47.990;-1.608;2023-02-28T15:05:19;20.40;38.30
49379;DHT22;35254;47.990;-1.608;2023-02-28T15:07:46;20.40;38.30
49379;DHT22;35254;47.990;-1.608;2023-02-28T15:10:19;20.40;38.20
49379;DHT22;35254;47.990;-1.608;2023-02-28T15:15:48;20.40;38.20
49379;DHT22;35254;47.990;-1.608;2023-02-28T15:21:16;20.40;38.10
49379;DHT22;35254;47.990;-1.608;2023-02-28T15:24:27;20.40;38.20
49379;DHT22;35254;47.990;-1.608;2023-02-28T15:26:37;20.40;38.10
49379;DHT22;35254;47.990;-1.608;2023-02-28T15:29:11;20.40;38.10
49379;DHT22;35254;47.990;-1.608;2023-02-28T15:32:06;20.30;38.10
49379;DHT22;35254;47.990;-1.608;2023-02-28T15:34:37;20.30;38.10
49379;DHT22;35254;47.990;-1.608;2023-02-28T15:37:38;20.30;38.10
49379;DHT22;35254;47.990;-1.608;2023-02-28T15:39:55;20.40;38.10
49379;DHT22;35254;47.990;-1.608;2023-02-28T15:42:22;20.30;38.20
49379;DHT22;35254;47.990;-1.608;2023-02-28T15:44:49;20.30;38.10
49379;DHT22;35254;47.990;-1.608;2023-02-28T15:47:23;20.30;38.10
49379;DHT22;35254;47.990;-1.608;2023-02-28T15:50:00;20.30;38.20
49379;DHT22;35254;47.990;-1.608;2023-02-28T15:52:43;20.30;38.20
49379;DHT22;35254;47.990;-1.608;2023-02-28T15:57:45;20.30;38.40
49379;DHT22;35254;47.990;-1.608;2023-02-28T16:00:19;20.30;38.40
49379;DHT22;35254;47.990;-1.608;2023-02-28T16:02:45;20.30;38.50
49379;DHT22;35254;47.990;-1.608;2023-02-28T16:07:42;20.30;38.50
49379;DHT22;35254;47.990;-1.608;2023-02-28T16:10:10;20.30;38.50
49379;DHT22;35254;47.990;-1.608;2023-02-28T16:12:38;20.20;38.40
49379;DHT22;35254;47.990;-1.608;2023-02-28T16:15:20;20.30;38.40
49379;DHT22;35254;47.990;-1.608;2023-02-28T16:17:46;20.30;38.40
49379;DHT22;35254;47.990;-1.608;2023-02-28T16:20:18;20.20;38.40
49379;DHT22;35254;47.990;-1.608;2023-02-28T16:22:44;20.20;38.40
49379;DHT22;35254;47.990;-1.608;2023-02-28T16:25:16;20.20;38.40
49379;DHT22;35254;47.990;-1.608;2023-02-28T16:27:44;20.30;38.30
49379;DHT22;35254;47.990;-1.608;2023-02-28T16:30:26;20.20;38.40
49379;DHT22;35254;47.990;-1.608;2023-02-28T16:32:53;20.20;38.40
49379;DHT22;35254;47.990;-1.608;2023-02-28T16:35:20;20.20;38.40
49379;DHT22;35254;47.990;-1.608;2023-02-28T16:37:46;20.20;38.40
49379;DHT22;35254;47.990;-1.608;2023-02-28T16:40:21;20.20;38.40
49379;DHT22;35254;47.990;-1.608;2023-02-28T16:42:51;20.20;38.40
49379;DHT22;35254;47.990;-1.608;2023-02-28T16:45:24;20.20;38.40
49379;DHT22;35254;47.990;-1.608;2023-02-28T16:47:50;20.20;38.40
49379;DHT22;35254;47.990;-1.608;2023-02-28T16:50:27;20.20;38.60
49379;DHT22;35254;47.990;-1.608;2023-02-28T16:52:54;20.20;38.60
49379;DHT22;35254;47.990;-1.608;2023-02-28T16:55:21;20.20;38.50
49379;DHT22;35254;47.990;-1.608;2023-02-28T16:57:52;20.20;38.50
49379;DHT22;35254;47.990;-1.608;2023-02-28T17:00:18;20.20;38.50
49379;DHT22;35254;47.990;-1.608;2023-02-28T17:02:44;20.20;38.60
49379;DHT22;35254;47.990;-1.608;2023-02-28T17:05:13;20.20;38.70
49379;DHT22;35254;47.990;-1.608;2023-02-28T17:07:41;20.20;38.60
49379;DHT22;35254;47.990;-1.608;2023-02-28T17:10:26;20.20;38.60
49379;DHT22;35254;47.990;-1.608;2023-02-28T17:12:52;20.20;38.70
49379;DHT22;35254;47.990;-1.608;2023-02-28T17:15:19;20.20;38.60
49379;DHT22;35254;47.990;-1.608;2023-02-28T17:17:46;20.20;38.80
49379;DHT22;35254;47.990;-1.608;2023-02-28T17:20:21;20.20;38.80
49379;DHT22;35254;47.990;-1.608;2023-02-28T17:22:52;20.20;38.80
49379;DHT22;35254;47.990;-1.608;2023-02-28T17:25:19;20.20;38.80
49379;DHT22;35254;47.990;-1.608;2023-02-28T17:27:45;20.20;38.80
49379;DHT22;35254;47.990;-1.608;2023-02-28T17:32:41;20.20;38.80
49379;DHT22;35254;47.990;-1.608;2023-02-28T17:35:08;20.20;38.70
49379;DHT22;35254;47.990;-1.608;2023-02-28T17:37:33;20.20;38.70
49379;DHT22;35254;47.990;-1.608;2023-02-28T17:40:00;20.10;38.60
49379;DHT22;35254;47.990;-1.608;2023-02-28T17:42:25;20.20;38.60
49379;DHT22;35254;47.990;-1.608;2023-02-28T17:44:51;20.10;38.60
49379;DHT22;35254;47.990;-1.608;2023-02-28T17:47:17;20.20;38.60
49379;DHT22;35254;47.990;-1.608;2023-02-28T17:49:42;20.20;38.80
49379;DHT22;35254;47.990;-1.608;2023-02-28T17:52:08;20.10;38.60
49379;DHT22;35254;47.990;-1.608;2023-02-28T17:54:34;20.20;38.60
49379;DHT22;35254;47.990;-1.608;2023-02-28T17:57:00;20.10;38.60
49379;DHT22;35254;47.990;-1.608;2023-02-28T17:59:25;20.10;38.60
49379;DHT22;35254;47.990;-1.608;2023-02-28T18:01:59;20.10;38.60
49379;DHT22;35254;47.990;-1.608;2023-02-28T18:04:24;20.20;38.70
49379;DHT22;35254;47.990;-1.608;2023-02-28T18:06:52;20.10;38.90
49379;DHT22;35254;47.990;-1.608;2023-02-28T18:09:20;20.10;38.80
49379;DHT22;35254;47.990;-1.608;2023-02-28T18:11:51;20.10;38.60
49379;DHT22;35254;47.990;-1.608;2023-02-28T18:14:19;20.10;38.60